ΕΜΥ, Εθνική Μετεωρολογική Υπηρεσία - Δελτία Καιρού, Προγνώσεις

ΑΕΡΟΝΑΥΤΙΛΙΑ

GREEK AIRPORTS CODES

LGNX 260950Z 36009KT 9999 FEW025 23/14 Q1015 RMK SCT180=

EUROPEAN AIRPORTS CODES

LFPO 261000Z 22011KT 190V250 9999 SCT017 12/08 Q1005 NOSIG=